createdAt,value
2022-07-29T00:00:31.103Z,13.55
2022-07-29T00:01:03.521Z,25.10
2022-07-29T00:01:35.928Z,20.20
2022-07-29T00:02:08.235Z,16.15
2022-07-29T00:02:40.913Z,61.92
2022-07-29T00:03:13.964Z,40.53
2022-07-29T00:03:46.399Z,28.40
2022-07-29T00:04:19.460Z,75.00
2022-07-29T00:04:52.334Z,37.80
2022-07-29T00:05:24.750Z,30.58
2022-07-29T00:05:57.117Z,29.73
2022-07-29T00:06:30.472Z,13.82
2022-07-29T00:07:03.016Z,32.10
2022-07-29T00:07:35.265Z,19.88
2022-07-29T00:08:10.747Z,14.60
2022-07-29T00:08:44.960Z,18.95
2022-07-29T00:09:17.318Z,23.98
2022-07-29T00:09:51.965Z,20.10
2022-07-29T00:10:24.835Z,37.50
2022-07-29T00:10:57.140Z,25.90
2022-07-29T00:11:29.475Z,17.65
2022-07-29T00:12:02.459Z,28.85
2022-07-29T00:12:34.914Z,14.43
2022-07-29T00:13:07.393Z,14.82
2022-07-29T00:13:40.434Z,27.17
2022-07-29T00:14:13.018Z,13.95
2022-07-29T00:14:45.561Z,16.38
2022-07-29T00:15:20.702Z,16.13
2022-07-29T00:15:53.128Z,25.25
2022-07-29T00:16:25.492Z,25.77
2022-07-29T00:16:57.870Z,19.23
2022-07-29T00:17:30.086Z,18.20
2022-07-29T00:18:02.493Z,21.00
2022-07-29T00:18:34.805Z,22.98
2022-07-29T00:19:07.790Z,14.18
2022-07-29T00:19:43.788Z,25.50
2022-07-29T00:20:17.925Z,18.17
2022-07-29T00:20:50.251Z,17.73
2022-07-29T00:21:22.920Z,14.20
2022-07-29T00:21:55.149Z,11.23
2022-07-29T00:22:27.396Z,13.43
2022-07-29T00:22:59.864Z,12.20
2022-07-29T00:23:36.448Z,31.92
2022-07-29T00:24:09.346Z,12.40
2022-07-29T00:24:41.691Z,24.95
2022-07-29T00:25:14.404Z,36.22
2022-07-29T00:25:46.733Z,18.25
2022-07-29T00:26:19.123Z,18.20
2022-07-29T00:26:51.627Z,13.48
2022-07-29T00:27:24.120Z,26.55
2022-07-29T00:27:56.461Z,22.48
2022-07-29T00:28:28.807Z,19.05
2022-07-29T00:29:32.625Z,16.13
2022-07-29T00:29:54.143Z,18.15
2022-07-29T00:30:26.518Z,13.68
2022-07-29T00:30:58.855Z,20.17
2022-07-29T00:31:31.645Z,26.30
2022-07-29T00:32:04.371Z,29.67
2022-07-29T00:32:36.979Z,17.83
2022-07-29T00:33:09.348Z,25.83
2022-07-29T00:33:41.843Z,20.17
2022-07-29T00:34:32.745Z,18.00
2022-07-29T00:35:24.217Z,27.95
2022-07-29T00:35:56.536Z,39.53
2022-07-29T00:36:29.881Z,30.23
2022-07-29T00:37:02.257Z,30.88
2022-07-29T00:37:34.697Z,14.05
2022-07-29T00:38:07.161Z,15.13
2022-07-29T00:38:39.590Z,16.17
2022-07-29T00:39:11.793Z,19.73
2022-07-29T00:39:44.183Z,27.17
2022-07-29T00:40:16.673Z,32.78
2022-07-29T00:40:49.152Z,15.30
2022-07-29T00:41:21.830Z,25.55
2022-07-29T00:41:54.215Z,19.67
2022-07-29T00:42:26.649Z,18.80
2022-07-29T00:42:59.328Z,13.43
2022-07-29T00:43:31.873Z,18.55
2022-07-29T00:44:04.261Z,22.67
2022-07-29T00:44:40.229Z,23.02
2022-07-29T00:45:13.393Z,12.90
2022-07-29T00:45:46.194Z,20.02
2022-07-29T00:46:18.575Z,29.73
2022-07-29T00:46:51.035Z,14.20
2022-07-29T00:47:23.547Z,16.10
2022-07-29T00:47:55.964Z,25.88
2022-07-29T00:48:28.227Z,14.95
2022-07-29T00:49:00.891Z,13.80
2022-07-29T00:49:33.879Z,13.85
2022-07-29T00:50:06.680Z,19.38
2022-07-29T00:50:39.385Z,19.58
2022-07-29T00:51:12.416Z,26.27
2022-07-29T00:51:44.781Z,17.85
2022-07-29T00:52:18.832Z,17.77
2022-07-29T00:52:51.865Z,13.23
2022-07-29T00:53:25.036Z,21.05
2022-07-29T00:53:58.161Z,12.85
2022-07-29T00:54:30.614Z,33.35
2022-07-29T00:55:08.526Z,18.40
2022-07-29T00:55:41.591Z,16.38
2022-07-29T00:56:13.878Z,16.85
2022-07-29T00:56:46.480Z,18.67
2022-07-29T00:57:18.813Z,32.67
2022-07-29T00:57:51.483Z,20.38
2022-07-29T00:58:24.164Z,34.75
2022-07-29T00:58:57.698Z,44.10
2022-07-29T00:59:34.889Z,52.25
2022-07-29T01:00:08.921Z,45.25
2022-07-29T01:00:42.094Z,26.67
2022-07-29T01:01:14.645Z,15.65
2022-07-29T01:01:47.262Z,62.55
2022-07-29T01:02:19.767Z,17.20
2022-07-29T01:02:52.358Z,51.00
2022-07-29T01:03:24.737Z,64.78
2022-07-29T01:03:57.071Z,51.80
2022-07-29T01:04:30.916Z,68.32
2022-07-29T01:05:05.147Z,68.82
2022-07-29T01:05:50.361Z,83.25
2022-07-29T01:06:24.541Z,22.00
2022-07-29T01:06:56.917Z,44.78
2022-07-29T01:07:29.929Z,19.23
2022-07-29T01:08:03.239Z,63.90
2022-07-29T01:08:35.813Z,43.60
2022-07-29T01:09:08.795Z,29.00
2022-07-29T01:09:46.168Z,148.07
2022-07-29T01:10:20.111Z,179.63
2022-07-29T01:10:53.169Z,149.85
2022-07-29T01:11:27.181Z,127.72
2022-07-29T01:12:00.290Z,122.45
2022-07-29T01:12:34.639Z,83.43
2022-07-29T01:13:08.423Z,79.25
2022-07-29T01:13:42.592Z,110.20
2022-07-29T01:14:15.871Z,113.50
2022-07-29T01:14:49.101Z,104.43
2022-07-29T01:15:21.846Z,102.05
2022-07-29T01:16:16.562Z,125.22
2022-07-29T01:17:15.550Z,33.90
2022-07-29T01:18:06.609Z,142.10
2022-07-29T01:18:41.120Z,40.10
2022-07-29T01:19:27.609Z,110.57
2022-07-29T01:20:08.285Z,142.68
2022-07-29T01:20:59.026Z,118.00
2022-07-29T01:21:57.725Z,82.55
2022-07-29T01:22:36.485Z,132.40
2022-07-29T01:23:08.780Z,127.80
2022-07-29T01:23:54.297Z,86.60
2022-07-29T01:24:32.873Z,120.72
2022-07-29T01:25:21.190Z,135.23
2022-07-29T01:26:23.162Z,104.30
2022-07-29T01:27:16.305Z,143.55
2022-07-29T01:27:50.606Z,146.80
2022-07-29T01:28:41.245Z,93.40
2022-07-29T01:29:19.771Z,23.88
2022-07-29T01:29:59.996Z,55.10
2022-07-29T01:30:33.734Z,45.88
2022-07-29T01:31:07.528Z,49.30
2022-07-29T01:32:00.550Z,82.18
2022-07-29T01:32:36.673Z,33.65
2022-07-29T01:33:12.163Z,15.80
2022-07-29T01:33:52.711Z,55.17
2022-07-29T01:34:28.376Z,63.85
2022-07-29T01:35:10.322Z,66.93
2022-07-29T01:35:43.178Z,55.05
2022-07-29T01:36:25.790Z,17.30
2022-07-29T01:37:06.887Z,30.33
2022-07-29T01:37:44.038Z,48.33
2022-07-29T01:38:21.754Z,31.08
2022-07-29T01:39:13.459Z,30.20
2022-07-29T01:39:48.316Z,52.45
2022-07-29T01:40:26.847Z,31.63
2022-07-29T01:41:10.711Z,24.98
2022-07-29T01:41:47.728Z,21.40
2022-07-29T01:42:26.215Z,70.60
2022-07-29T01:42:59.245Z,103.80
2022-07-29T01:43:38.413Z,41.67
2022-07-29T01:44:14.241Z,81.90
2022-07-29T01:44:58.331Z,95.55
2022-07-29T01:45:50.983Z,50.50
2022-07-29T01:46:28.760Z,108.78
2022-07-29T01:47:03.477Z,90.10
2022-07-29T01:47:41.475Z,87.75
2022-07-29T01:48:19.319Z,44.63
2022-07-29T01:48:56.336Z,43.17
2022-07-29T01:49:31.182Z,15.05
2022-07-29T01:50:07.245Z,40.58
2022-07-29T01:50:45.054Z,29.10
2022-07-29T01:51:17.394Z,63.65
2022-07-29T01:51:49.784Z,58.92
2022-07-29T01:52:29.134Z,17.75
2022-07-29T01:53:03.507Z,25.52
2022-07-29T01:53:38.112Z,28.58
2022-07-29T01:54:29.804Z,34.50
2022-07-29T01:55:05.579Z,51.38
2022-07-29T01:55:40.313Z,17.13
2022-07-29T01:56:13.477Z,36.72
2022-07-29T01:56:48.278Z,18.70
2022-07-29T01:57:22.233Z,23.23
2022-07-29T01:57:55.318Z,22.73
2022-07-29T01:58:28.371Z,20.52
2022-07-29T01:59:02.122Z,14.40
2022-07-29T01:59:36.023Z,38.17
2022-07-29T02:00:09.345Z,33.78
2022-07-29T02:00:45.671Z,25.15
2022-07-29T02:01:19.342Z,19.80
2022-07-29T02:01:54.406Z,20.00
2022-07-29T02:02:27.821Z,18.05
2022-07-29T02:03:01.825Z,17.65
2022-07-29T02:03:34.639Z,20.85
2022-07-29T02:04:08.144Z,18.52
2022-07-29T02:04:41.600Z,28.48
2022-07-29T02:05:15.921Z,21.33
2022-07-29T02:05:49.301Z,19.88
2022-07-29T02:06:23.171Z,15.93
2022-07-29T02:06:58.264Z,26.05
2022-07-29T02:07:32.933Z,15.18
2022-07-29T02:08:05.977Z,16.15
2022-07-29T02:08:39.715Z,20.92
2022-07-29T02:09:13.436Z,17.90
2022-07-29T02:09:46.994Z,15.48
2022-07-29T02:10:21.279Z,33.00
2022-07-29T02:10:59.277Z,17.60
2022-07-29T02:11:32.882Z,21.30
2022-07-29T02:12:07.109Z,15.35
2022-07-29T02:12:40.405Z,18.70
2022-07-29T02:13:13.981Z,36.90
2022-07-29T02:13:47.669Z,48.20
2022-07-29T02:14:20.486Z,19.30
2022-07-29T02:14:54.366Z,19.55
2022-07-29T02:15:27.849Z,19.23
2022-07-29T02:16:01.234Z,36.78
2022-07-29T02:16:34.657Z,18.52
2022-07-29T02:17:07.259Z,29.00
2022-07-29T02:17:44.317Z,23.80
2022-07-29T02:18:20.497Z,44.28
2022-07-29T02:18:54.984Z,31.95
2022-07-29T02:19:28.362Z,29.80
2022-07-29T02:20:01.913Z,35.08
2022-07-29T02:20:34.722Z,16.00
2022-07-29T02:21:07.290Z,30.20
2022-07-29T02:21:47.831Z,20.77
2022-07-29T02:22:20.938Z,48.42
2022-07-29T02:22:54.281Z,16.48
2022-07-29T02:23:27.441Z,14.80
2022-07-29T02:24:01.180Z,20.33
2022-07-29T02:24:34.632Z,50.85
2022-07-29T02:25:13.860Z,26.25
2022-07-29T02:25:47.705Z,22.17
2022-07-29T02:26:24.339Z,29.05
2022-07-29T02:26:57.696Z,15.90
2022-07-29T02:27:30.710Z,42.78
2022-07-29T02:28:03.778Z,17.17
2022-07-29T02:28:36.406Z,17.35
2022-07-29T02:29:09.936Z,26.27
2022-07-29T02:29:42.917Z,35.22
2022-07-29T02:30:15.673Z,39.38
2022-07-29T02:30:49.543Z,28.88
2022-07-29T02:31:24.275Z,26.50
2022-07-29T02:31:58.464Z,23.38
2022-07-29T02:32:32.108Z,29.13
2022-07-29T02:33:05.267Z,26.10
2022-07-29T02:33:38.819Z,27.20
2022-07-29T02:34:12.128Z,19.92
2022-07-29T02:34:44.833Z,20.70
2022-07-29T02:35:18.127Z,32.22
2022-07-29T02:35:51.446Z,22.98
2022-07-29T02:36:24.943Z,21.02
2022-07-29T02:36:57.297Z,21.23
2022-07-29T02:37:30.833Z,30.83
2022-07-29T02:38:22.796Z,20.13
2022-07-29T02:38:58.810Z,32.15
2022-07-29T02:39:31.330Z,43.83
2022-07-29T02:40:04.398Z,39.22
2022-07-29T02:40:39.381Z,19.05
2022-07-29T02:41:14.835Z,20.23
2022-07-29T02:41:47.130Z,17.98
2022-07-29T02:42:19.930Z,15.77
2022-07-29T02:42:52.388Z,12.25
2022-07-29T02:43:25.203Z,17.00
2022-07-29T02:43:59.657Z,17.52
2022-07-29T02:44:34.885Z,21.27
2022-07-29T02:45:07.774Z,17.55
2022-07-29T02:45:40.224Z,31.60
2022-07-29T02:46:28.921Z,29.33
2022-07-29T02:47:21.862Z,30.98
2022-07-29T02:47:56.499Z,19.35
2022-07-29T02:48:33.119Z,15.60
2022-07-29T02:49:10.473Z,22.38
2022-07-29T02:50:15.312Z,20.85
2022-07-29T02:50:53.181Z,37.30
2022-07-29T02:51:51.882Z,15.35
2022-07-29T02:52:27.702Z,22.42
2022-07-29T02:53:02.409Z,20.13
2022-07-29T02:53:35.827Z,25.70
2022-07-29T02:54:09.159Z,30.10
2022-07-29T02:54:43.859Z,26.88
2022-07-29T02:55:17.777Z,27.83
2022-07-29T02:55:52.834Z,24.65
2022-07-29T02:56:26.795Z,33.90
2022-07-29T02:57:01.964Z,14.68
2022-07-29T02:57:53.843Z,15.35
2022-07-29T02:58:33.498Z,30.98
2022-07-29T02:59:09.301Z,26.17
2022-07-29T02:59:43.371Z,26.75
2022-07-29T03:00:16.713Z,19.45
2022-07-29T03:00:50.077Z,34.75
2022-07-29T03:01:25.195Z,34.75
2022-07-29T03:01:59.003Z,23.73
2022-07-29T03:02:34.425Z,24.02
2022-07-29T03:03:10.121Z,18.05
2022-07-29T03:03:43.564Z,24.77
2022-07-29T03:04:20.859Z,20.65
2022-07-29T03:04:54.071Z,30.83
2022-07-29T03:05:27.241Z,32.00
2022-07-29T03:06:00.947Z,16.30
2022-07-29T03:06:37.962Z,18.50
2022-07-29T03:07:12.517Z,18.75
2022-07-29T03:07:47.197Z,19.40
2022-07-29T03:08:20.829Z,16.73
2022-07-29T03:08:53.939Z,16.08
2022-07-29T03:09:27.161Z,15.75
2022-07-29T03:09:59.897Z,15.48
2022-07-29T03:10:32.942Z,15.73
2022-07-29T03:11:06.885Z,21.92
2022-07-29T03:11:50.116Z,13.18
2022-07-29T03:12:23.517Z,22.63
2022-07-29T03:12:56.536Z,19.38
2022-07-29T03:13:29.368Z,15.30
2022-07-29T03:14:02.243Z,17.20
2022-07-29T03:14:34.807Z,21.88
2022-07-29T03:15:07.357Z,14.30
2022-07-29T03:15:39.938Z,18.83
2022-07-29T03:16:12.738Z,19.05
2022-07-29T03:16:45.410Z,14.93
2022-07-29T03:17:17.767Z,19.10
2022-07-29T03:17:50.600Z,19.30
2022-07-29T03:18:23.005Z,18.98
2022-07-29T03:18:55.765Z,18.02
2022-07-29T03:19:28.261Z,16.27
2022-07-29T03:20:00.793Z,26.08
2022-07-29T03:20:33.436Z,14.18
2022-07-29T03:21:06.008Z,16.75
2022-07-29T03:21:38.530Z,21.63
2022-07-29T03:22:11.027Z,18.10
2022-07-29T03:22:44.781Z,18.60
2022-07-29T03:23:21.973Z,20.05
2022-07-29T03:23:54.349Z,15.52
2022-07-29T03:24:28.036Z,18.50
2022-07-29T03:25:08.434Z,13.25
2022-07-29T03:25:40.851Z,16.05
2022-07-29T03:26:13.740Z,18.50
2022-07-29T03:26:46.039Z,23.50
2022-07-29T03:27:18.398Z,13.57
2022-07-29T03:27:50.859Z,19.15
2022-07-29T03:28:23.801Z,21.15
2022-07-29T03:28:59.326Z,16.35
2022-07-29T03:29:33.876Z,16.63
2022-07-29T03:30:08.266Z,18.30
2022-07-29T03:30:41.527Z,18.00
2022-07-29T03:31:16.992Z,16.75
2022-07-29T03:31:49.413Z,19.75
2022-07-29T03:32:25.251Z,17.23
2022-07-29T03:32:58.129Z,19.48
2022-07-29T03:33:31.580Z,19.35
2022-07-29T03:34:04.020Z,14.98
2022-07-29T03:34:37.376Z,28.75
2022-07-29T03:35:09.923Z,17.83
2022-07-29T03:35:42.759Z,16.90
2022-07-29T03:36:15.283Z,15.20
2022-07-29T03:36:48.024Z,15.77
2022-07-29T03:37:20.375Z,25.90
2022-07-29T03:37:52.780Z,18.08
2022-07-29T03:38:26.030Z,22.25
2022-07-29T03:38:59.705Z,26.73
2022-07-29T03:39:34.196Z,16.98
2022-07-29T03:40:08.373Z,19.13
2022-07-29T03:40:47.712Z,13.80
2022-07-29T03:41:22.340Z,17.88
2022-07-29T03:41:56.310Z,28.02
2022-07-29T03:42:34.311Z,28.05
2022-07-29T03:43:07.779Z,17.08
2022-07-29T03:43:49.273Z,16.83
2022-07-29T03:44:22.813Z,22.17
2022-07-29T03:44:56.841Z,21.65
2022-07-29T03:45:30.467Z,22.60
2022-07-29T03:46:03.464Z,14.52
2022-07-29T03:46:36.860Z,29.33
2022-07-29T03:47:09.553Z,16.63
2022-07-29T03:47:50.940Z,19.90
2022-07-29T03:48:25.416Z,18.23
2022-07-29T03:48:59.658Z,16.63
2022-07-29T03:49:32.212Z,19.77
2022-07-29T03:50:07.338Z,15.10
2022-07-29T03:50:43.487Z,26.30
2022-07-29T03:51:15.870Z,20.38
2022-07-29T03:51:48.655Z,21.73
2022-07-29T03:52:22.059Z,25.85
2022-07-29T03:52:54.367Z,22.08
2022-07-29T03:53:26.688Z,23.92
2022-07-29T03:53:59.251Z,14.48
2022-07-29T03:54:31.616Z,23.95
2022-07-29T03:55:04.643Z,15.93
2022-07-29T03:55:57.141Z,24.45
2022-07-29T03:56:29.990Z,14.70
2022-07-29T03:57:03.074Z,20.08
2022-07-29T03:57:36.160Z,16.42
2022-07-29T03:58:09.205Z,15.90
2022-07-29T03:58:41.587Z,15.57
2022-07-29T03:59:14.639Z,16.75
2022-07-29T03:59:47.576Z,15.80
2022-07-29T04:00:20.642Z,33.33
2022-07-29T04:00:53.493Z,16.45
2022-07-29T04:01:26.279Z,16.00
2022-07-29T04:01:59.169Z,13.32
2022-07-29T04:02:32.662Z,15.85
2022-07-29T04:03:05.423Z,16.40
2022-07-29T04:03:43.220Z,13.60
2022-07-29T04:04:16.055Z,18.00
2022-07-29T04:04:48.780Z,14.90
2022-07-29T04:05:21.317Z,15.07
2022-07-29T04:06:13.909Z,18.92
2022-07-29T04:06:48.234Z,15.70
2022-07-29T04:07:20.861Z,18.85
2022-07-29T04:07:53.189Z,35.42
2022-07-29T04:08:25.602Z,16.20
2022-07-29T04:08:58.005Z,15.25
2022-07-29T04:09:30.490Z,18.23
2022-07-29T04:10:03.045Z,15.30
2022-07-29T04:10:35.723Z,26.48
2022-07-29T04:11:08.388Z,16.73
2022-07-29T04:12:01.979Z,14.68
2022-07-29T04:12:33.791Z,28.40
2022-07-29T04:13:06.140Z,19.05
2022-07-29T04:13:38.635Z,20.30
2022-07-29T04:14:11.173Z,15.57
2022-07-29T04:14:43.645Z,14.23
2022-07-29T04:15:16.074Z,21.83
2022-07-29T04:15:48.650Z,18.63
2022-07-29T04:16:21.091Z,20.95
2022-07-29T04:16:54.192Z,15.52
2022-07-29T04:17:26.489Z,23.50
2022-07-29T04:17:59.286Z,16.55
2022-07-29T04:18:31.615Z,18.00
2022-07-29T04:19:03.940Z,20.42
2022-07-29T04:19:36.475Z,16.95
2022-07-29T04:20:09.073Z,21.70
2022-07-29T04:20:41.888Z,14.13
2022-07-29T04:21:14.183Z,17.35
2022-07-29T04:21:46.651Z,17.52
2022-07-29T04:22:18.910Z,17.42
2022-07-29T04:22:51.369Z,17.05
2022-07-29T04:23:23.692Z,14.35
2022-07-29T04:23:55.981Z,18.55
2022-07-29T04:24:28.623Z,14.05
2022-07-29T04:25:04.056Z,25.98
2022-07-29T04:25:40.287Z,13.75
2022-07-29T04:26:12.806Z,27.98
2022-07-29T04:26:46.481Z,25.75
2022-07-29T04:27:18.844Z,18.27
2022-07-29T04:28:03.478Z,15.95
2022-07-29T04:28:35.835Z,16.73
2022-07-29T04:29:08.173Z,14.77
2022-07-29T04:29:56.902Z,16.33
2022-07-29T04:30:30.884Z,19.15
2022-07-29T04:31:03.310Z,15.35
2022-07-29T04:31:35.918Z,21.52
2022-07-29T04:32:08.405Z,17.02
2022-07-29T04:32:40.884Z,14.90
2022-07-29T04:33:13.244Z,15.27
2022-07-29T04:33:45.651Z,16.02
2022-07-29T04:34:18.955Z,21.88
2022-07-29T04:34:52.153Z,14.50
2022-07-29T04:35:24.663Z,16.15
2022-07-29T04:35:56.990Z,21.63
2022-07-29T04:36:30.189Z,22.67
2022-07-29T04:37:02.780Z,15.23
2022-07-29T04:37:35.127Z,12.90
2022-07-29T04:38:07.917Z,18.40
2022-07-29T04:38:48.000Z,18.08
2022-07-29T04:39:23.080Z,12.98
2022-07-29T04:39:55.711Z,14.48
2022-07-29T04:40:28.826Z,12.85
2022-07-29T04:41:01.249Z,15.60
2022-07-29T04:41:34.626Z,17.00
2022-07-29T04:42:09.098Z,18.58
2022-07-29T04:42:46.477Z,16.60
2022-07-29T04:43:23.149Z,18.00
2022-07-29T04:43:55.764Z,23.00
2022-07-29T04:44:29.950Z,18.67
2022-07-29T04:45:02.755Z,13.40
2022-07-29T04:45:35.066Z,13.50
2022-07-29T04:46:07.873Z,16.88
2022-07-29T04:46:40.326Z,18.50
2022-07-29T04:47:12.871Z,14.30
2022-07-29T04:47:45.249Z,15.43
2022-07-29T04:48:17.618Z,14.38
2022-07-29T04:48:50.613Z,16.35
2022-07-29T04:49:23.199Z,16.20
2022-07-29T04:49:56.384Z,15.40
2022-07-29T04:50:28.892Z,16.48
2022-07-29T04:51:01.242Z,13.88
2022-07-29T04:51:33.571Z,18.67
2022-07-29T04:52:06.445Z,18.75
2022-07-29T04:52:39.208Z,16.17
2022-07-29T04:53:11.531Z,23.33
2022-07-29T04:53:43.912Z,13.77
2022-07-29T04:54:16.502Z,21.77
2022-07-29T04:54:49.515Z,15.57
2022-07-29T04:55:22.060Z,14.52
2022-07-29T04:55:54.379Z,19.85
2022-07-29T04:56:26.797Z,27.35
2022-07-29T04:56:59.123Z,22.73
2022-07-29T04:57:31.530Z,13.98
2022-07-29T04:58:03.873Z,21.80
2022-07-29T04:58:36.649Z,26.67
2022-07-29T04:59:09.104Z,23.98
2022-07-29T04:59:41.546Z,29.55
2022-07-29T05:00:14.195Z,15.80
2022-07-29T05:00:46.534Z,16.13
2022-07-29T05:01:19.106Z,15.25
2022-07-29T05:01:51.634Z,20.17
2022-07-29T05:02:24.145Z,25.40
2022-07-29T05:02:56.590Z,16.50
2022-07-29T05:03:28.966Z,19.95
2022-07-29T05:04:01.384Z,26.10
2022-07-29T05:04:33.763Z,12.65
2022-07-29T05:05:06.709Z,14.63
2022-07-29T05:05:39.024Z,15.05
2022-07-29T05:06:11.322Z,17.42
2022-07-29T05:06:43.807Z,15.02
2022-07-29T05:07:16.272Z,14.15
2022-07-29T05:07:48.673Z,14.23
2022-07-29T05:08:21.197Z,17.48
2022-07-29T05:08:53.640Z,15.70
2022-07-29T05:09:25.913Z,14.35
2022-07-29T05:09:58.244Z,16.67
2022-07-29T05:10:30.805Z,15.98
2022-07-29T05:11:11.983Z,14.43
2022-07-29T05:11:45.435Z,21.83
2022-07-29T05:12:17.722Z,22.77
2022-07-29T05:12:50.489Z,13.73
2022-07-29T05:13:22.779Z,15.05
2022-07-29T05:13:55.077Z,13.27
2022-07-29T05:14:27.731Z,23.98
2022-07-29T05:15:00.802Z,16.05
2022-07-29T05:15:33.769Z,25.27
2022-07-29T05:16:06.335Z,18.33
2022-07-29T05:16:40.368Z,15.80
2022-07-29T05:17:12.684Z,16.75
2022-07-29T05:17:45.448Z,16.50
2022-07-29T05:18:17.882Z,16.45
2022-07-29T05:18:50.275Z,14.68
2022-07-29T05:19:22.644Z,15.82
2022-07-29T05:19:55.133Z,14.30
2022-07-29T05:20:29.641Z,19.83
2022-07-29T05:21:02.175Z,23.75
2022-07-29T05:21:34.493Z,18.65
2022-07-29T05:22:07.076Z,14.77
2022-07-29T05:22:39.431Z,19.13
2022-07-29T05:23:13.962Z,20.30
2022-07-29T05:23:46.349Z,15.35
2022-07-29T05:24:19.671Z,19.10
2022-07-29T05:24:52.355Z,24.67
2022-07-29T05:25:25.154Z,14.27
2022-07-29T05:26:16.557Z,18.15
2022-07-29T05:26:48.867Z,15.07
2022-07-29T05:27:21.207Z,17.95
2022-07-29T05:27:54.367Z,15.93
2022-07-29T05:28:26.783Z,16.75
2022-07-29T05:28:59.264Z,15.25
2022-07-29T05:29:42.804Z,25.90
2022-07-29T05:30:17.796Z,22.42
2022-07-29T05:30:50.635Z,15.50
2022-07-29T05:31:23.393Z,15.35
2022-07-29T05:31:55.924Z,17.90
2022-07-29T05:32:28.276Z,17.73
2022-07-29T05:33:00.653Z,15.80
2022-07-29T05:33:35.865Z,31.48
2022-07-29T05:34:09.188Z,14.55
2022-07-29T05:34:50.748Z,18.50
2022-07-29T05:35:23.954Z,19.33
2022-07-29T05:36:00.300Z,19.08
2022-07-29T05:36:33.324Z,25.88
2022-07-29T05:37:05.726Z,17.55
2022-07-29T05:37:38.253Z,13.65
2022-07-29T05:38:10.577Z,29.25
2022-07-29T05:38:42.950Z,27.52
2022-07-29T05:39:15.334Z,21.45
2022-07-29T05:39:50.637Z,21.50
2022-07-29T05:40:29.447Z,19.83
2022-07-29T05:41:01.915Z,21.00
2022-07-29T05:41:34.374Z,27.60
2022-07-29T05:42:12.878Z,18.65
2022-07-29T05:42:45.388Z,22.85
2022-07-29T05:43:17.983Z,21.67
2022-07-29T05:43:50.305Z,17.95
2022-07-29T05:44:25.330Z,15.15
2022-07-29T05:44:58.007Z,19.33
2022-07-29T05:45:30.432Z,13.57
2022-07-29T05:46:02.914Z,22.00
2022-07-29T05:46:35.768Z,14.35
2022-07-29T05:47:08.716Z,20.65
2022-07-29T05:47:41.081Z,19.02
2022-07-29T05:48:13.495Z,19.52
2022-07-29T05:48:45.972Z,26.45
2022-07-29T05:49:23.082Z,20.23
2022-07-29T05:49:59.748Z,31.30
2022-07-29T05:50:32.428Z,16.55
2022-07-29T05:51:04.825Z,13.70
2022-07-29T05:51:37.349Z,19.25
2022-07-29T05:52:10.099Z,17.48
2022-07-29T05:52:42.504Z,16.20
2022-07-29T05:53:19.978Z,23.42
2022-07-29T05:53:52.882Z,15.55
2022-07-29T05:54:25.335Z,16.05
2022-07-29T05:54:57.894Z,14.70
2022-07-29T05:55:30.184Z,14.98
2022-07-29T05:56:06.538Z,15.38
2022-07-29T05:56:39.030Z,20.00
2022-07-29T05:57:18.048Z,12.68
2022-07-29T05:57:50.373Z,14.57
2022-07-29T05:58:22.730Z,28.23
2022-07-29T05:58:55.283Z,20.05
2022-07-29T05:59:30.470Z,13.90
2022-07-29T06:00:03.171Z,14.45
2022-07-29T06:00:44.797Z,16.10
2022-07-29T06:01:17.312Z,21.70
2022-07-29T06:01:49.834Z,29.17
2022-07-29T06:02:22.409Z,21.15
2022-07-29T06:02:54.788Z,15.73
2022-07-29T06:03:28.470Z,14.90
2022-07-29T06:04:01.137Z,14.00
2022-07-29T06:04:34.923Z,12.88
2022-07-29T06:05:10.615Z,17.48
2022-07-29T06:05:49.216Z,14.82
2022-07-29T06:06:21.606Z,15.57
2022-07-29T06:06:54.915Z,16.27
2022-07-29T06:07:27.200Z,16.40
2022-07-29T06:07:59.541Z,18.88
2022-07-29T06:08:31.835Z,19.00
2022-07-29T06:09:12.514Z,12.80
2022-07-29T06:09:45.681Z,16.73
2022-07-29T06:10:18.100Z,18.30
2022-07-29T06:10:50.432Z,12.63
2022-07-29T06:11:22.769Z,18.92
2022-07-29T06:11:55.141Z,16.08
2022-07-29T06:12:27.588Z,16.27
2022-07-29T06:12:59.865Z,14.88
2022-07-29T06:13:32.634Z,16.55
2022-07-29T06:14:05.363Z,17.48
2022-07-29T06:14:39.081Z,15.05
2022-07-29T06:15:11.504Z,15.75
2022-07-29T06:15:44.302Z,27.77
2022-07-29T06:16:16.768Z,14.73
2022-07-29T06:17:02.781Z,16.00
2022-07-29T06:17:35.137Z,18.02
2022-07-29T06:18:10.318Z,13.93
2022-07-29T06:18:43.383Z,19.15
2022-07-29T06:19:15.890Z,14.15
2022-07-29T06:19:48.356Z,14.40
2022-07-29T06:20:27.080Z,20.23
2022-07-29T06:20:59.792Z,22.23
2022-07-29T06:21:32.554Z,18.40
2022-07-29T06:22:05.020Z,20.60
2022-07-29T06:22:37.619Z,17.20
2022-07-29T06:23:11.111Z,13.73
2022-07-29T06:23:43.471Z,20.60
2022-07-29T06:24:16.935Z,26.20
2022-07-29T06:24:49.469Z,11.82
2022-07-29T06:25:21.816Z,14.73
2022-07-29T06:25:54.235Z,19.67
2022-07-29T06:26:30.868Z,16.45
2022-07-29T06:27:03.893Z,19.13
2022-07-29T06:27:36.242Z,14.50
2022-07-29T06:28:08.942Z,21.10
2022-07-29T06:28:41.297Z,14.77
2022-07-29T06:29:13.727Z,19.83
2022-07-29T06:29:46.041Z,16.20
2022-07-29T06:30:18.982Z,16.75
2022-07-29T06:30:51.367Z,10.98
2022-07-29T06:31:24.177Z,17.13
2022-07-29T06:31:56.590Z,14.80
2022-07-29T06:32:29.013Z,12.93
2022-07-29T06:33:03.006Z,11.52
2022-07-29T06:33:35.379Z,14.73
2022-07-29T06:34:08.304Z,13.25
2022-07-29T06:34:41.241Z,21.40
2022-07-29T06:36:08.946Z,16.42
2022-07-29T06:36:41.378Z,31.58
2022-07-29T06:37:15.752Z,23.05
2022-07-29T06:37:48.856Z,13.57
2022-07-29T06:38:30.780Z,15.68
2022-07-29T06:39:07.933Z,33.97
2022-07-29T06:39:40.232Z,13.23
2022-07-29T06:40:31.332Z,24.92
2022-07-29T06:41:08.707Z,32.15
2022-07-29T06:41:41.173Z,10.15
2022-07-29T06:42:16.356Z,16.85
2022-07-29T06:42:48.918Z,14.57
2022-07-29T06:43:21.385Z,21.85
2022-07-29T06:43:56.770Z,12.20
2022-07-29T06:44:29.455Z,16.80
2022-07-29T06:45:05.021Z,18.23
2022-07-29T06:45:42.633Z,17.83
2022-07-29T06:46:16.252Z,12.77
2022-07-29T06:46:51.167Z,21.27
2022-07-29T06:47:23.524Z,30.67
2022-07-29T06:47:56.099Z,16.83
2022-07-29T06:48:28.714Z,14.65
2022-07-29T06:49:02.794Z,19.63
2022-07-29T06:49:35.150Z,22.42
2022-07-29T06:50:07.850Z,17.02
2022-07-29T06:50:40.923Z,17.95
2022-07-29T06:51:13.236Z,13.60
2022-07-29T06:51:45.486Z,15.32
2022-07-29T06:52:17.809Z,21.50
2022-07-29T06:52:50.744Z,14.90
2022-07-29T06:53:23.369Z,25.35
2022-07-29T06:53:58.391Z,13.85
2022-07-29T06:54:34.516Z,17.40
2022-07-29T06:55:07.285Z,12.30
2022-07-29T06:55:39.672Z,24.67
2022-07-29T06:56:13.882Z,15.07
2022-07-29T06:56:46.485Z,17.67
2022-07-29T06:57:18.807Z,23.90
2022-07-29T06:57:51.414Z,28.65
2022-07-29T06:58:23.883Z,14.98
2022-07-29T06:59:01.480Z,17.17
2022-07-29T06:59:36.048Z,28.63
2022-07-29T07:00:09.040Z,14.48
2022-07-29T07:00:41.701Z,18.83
2022-07-29T07:01:14.169Z,12.50
2022-07-29T07:01:46.825Z,23.75
2022-07-29T07:02:19.203Z,15.05
2022-07-29T07:02:51.693Z,26.40
2022-07-29T07:03:24.165Z,16.73
2022-07-29T07:03:56.546Z,15.60
2022-07-29T07:04:29.659Z,13.90
2022-07-29T07:05:02.190Z,28.92
2022-07-29T07:05:34.676Z,19.30
2022-07-29T07:06:08.231Z,15.13
2022-07-29T07:06:43.211Z,12.68
2022-07-29T07:07:15.698Z,16.85
2022-07-29T07:07:48.033Z,16.63
2022-07-29T07:08:20.666Z,13.77
2022-07-29T07:08:53.069Z,13.85
2022-07-29T07:09:25.429Z,16.77
2022-07-29T07:10:12.622Z,23.48
2022-07-29T07:10:45.453Z,29.02
2022-07-29T07:11:17.835Z,16.83
2022-07-29T07:11:50.144Z,19.60
2022-07-29T07:12:22.662Z,18.25
2022-07-29T07:12:55.060Z,28.95
2022-07-29T07:13:27.419Z,15.65
2022-07-29T07:14:03.425Z,18.13
2022-07-29T07:14:36.452Z,11.73
2022-07-29T07:15:08.952Z,17.00
2022-07-29T07:15:41.638Z,13.82
2022-07-29T07:16:14.221Z,15.98
2022-07-29T07:16:46.650Z,11.93
2022-07-29T07:17:19.159Z,12.90
2022-07-29T07:17:51.661Z,14.77
2022-07-29T07:18:23.959Z,13.90
2022-07-29T07:18:56.349Z,16.88
2022-07-29T07:19:28.623Z,26.75
2022-07-29T07:20:00.956Z,14.55
2022-07-29T07:20:34.469Z,15.95
2022-07-29T07:21:07.093Z,23.98
2022-07-29T07:21:39.431Z,18.02
2022-07-29T07:22:11.914Z,14.38
2022-07-29T07:22:44.445Z,20.08
2022-07-29T07:23:16.816Z,22.50
2022-07-29T07:23:49.156Z,21.17